createdAt,value
2022-11-29T00:01:34.187Z,101824.38
2022-11-29T00:04:01.786Z,101820.94
2022-11-29T00:06:31.271Z,101821.78
2022-11-29T00:09:00.438Z,101822.66
2022-11-29T00:11:48.844Z,101813.94
2022-11-29T00:14:19.038Z,101811.34
2022-11-29T00:16:49.753Z,101808.63
2022-11-29T00:19:16.846Z,101807.69
2022-11-29T00:21:43.542Z,101805.00
2022-11-29T00:24:10.448Z,101810.09
2022-11-29T00:26:37.348Z,101813.56
2022-11-29T00:29:04.539Z,101810.94
2022-11-29T00:31:33.058Z,101806.56
2022-11-29T00:34:04.642Z,101814.34
2022-11-29T00:36:31.508Z,101806.53
2022-11-29T00:38:58.552Z,101809.13
2022-11-29T00:41:25.566Z,101805.75
2022-11-29T00:43:52.372Z,101800.59
2022-11-29T00:46:19.292Z,101801.41
2022-11-29T00:48:46.083Z,101801.22
2022-11-29T00:51:13.285Z,101810.66
2022-11-29T00:53:40.211Z,101812.34
2022-11-29T00:56:08.026Z,101820.22
2022-11-29T00:58:36.172Z,101817.69
2022-11-29T01:01:03.344Z,101825.53
2022-11-29T01:03:30.154Z,101819.44
2022-11-29T01:06:10.780Z,101827.25
2022-11-29T01:08:38.194Z,101823.78
2022-11-29T01:11:31.420Z,101821.16
2022-11-29T01:14:00.740Z,101815.94
2022-11-29T01:16:30.283Z,101815.91
2022-11-29T01:18:57.268Z,101822.81
2022-11-29T01:21:24.943Z,101823.69
2022-11-29T01:23:53.180Z,101817.69
2022-11-29T01:26:24.430Z,101816.88
2022-11-29T01:28:53.800Z,101809.22
2022-11-29T01:31:32.482Z,101817.25
2022-11-29T01:34:01.670Z,101807.16
2022-11-29T01:36:29.141Z,101809.13
2022-11-29T01:38:56.177Z,101807.63
2022-11-29T01:41:26.342Z,101813.78
2022-11-29T01:44:07.423Z,101818.06
2022-11-29T01:46:38.630Z,101818.84
2022-11-29T01:49:15.214Z,101823.09
2022-11-29T01:51:46.151Z,101820.41
2022-11-29T01:54:14.382Z,101823.78
2022-11-29T01:56:42.060Z,101814.28
2022-11-29T01:59:14.632Z,101820.38
2022-11-29T02:01:41.744Z,101823.84
2022-11-29T02:04:08.745Z,101820.34
2022-11-29T02:06:36.964Z,101822.84
2022-11-29T02:09:04.602Z,101819.31
2022-11-29T02:11:49.841Z,101824.38
2022-11-29T02:14:35.038Z,101831.13
2022-11-29T02:17:25.184Z,101833.59
2022-11-29T02:19:51.928Z,101829.13
2022-11-29T02:22:31.430Z,101836.81
2022-11-29T02:25:23.137Z,101831.56
2022-11-29T02:28:08.008Z,101828.94
2022-11-29T02:31:05.246Z,101837.53
2022-11-29T02:33:50.712Z,101844.34
2022-11-29T02:36:45.263Z,101837.34
2022-11-29T02:39:40.352Z,101835.50
2022-11-29T02:42:32.939Z,101832.81
2022-11-29T02:45:14.710Z,101833.56
2022-11-29T02:48:00.146Z,101823.03
2022-11-29T02:50:52.915Z,101824.72
2022-11-29T02:53:42.413Z,101830.81
2022-11-29T02:56:25.608Z,101831.75
2022-11-29T02:58:58.206Z,101837.81
2022-11-29T03:01:37.409Z,101841.22
2022-11-29T03:04:26.752Z,101844.69
2022-11-29T03:07:10.672Z,101841.13
2022-11-29T03:10:02.516Z,101842.81
2022-11-29T03:12:38.637Z,101847.94
2022-11-29T03:15:32.766Z,101845.34
2022-11-29T03:18:25.495Z,101858.34
2022-11-29T03:21:18.098Z,101863.47
2022-11-29T03:23:51.072Z,101867.69
2022-11-29T03:26:42.292Z,101854.81
2022-11-29T03:29:17.181Z,101864.16
2022-11-29T03:32:14.699Z,101862.44
2022-11-29T03:35:03.124Z,101860.66
2022-11-29T03:37:47.752Z,101863.22
2022-11-29T03:40:21.533Z,101864.88
2022-11-29T03:42:53.304Z,101866.63
2022-11-29T03:45:35.350Z,101867.47
2022-11-29T03:48:07.914Z,101868.38
2022-11-29T03:50:54.676Z,101876.19
2022-11-29T03:53:33.638Z,101881.31
2022-11-29T03:56:02.321Z,101882.13
2022-11-29T03:58:40.263Z,101879.50
2022-11-29T04:01:22.239Z,101873.41
2022-11-29T04:04:28.180Z,101873.41
2022-11-29T04:07:21.574Z,101881.25
2022-11-29T04:10:06.636Z,101891.59
2022-11-29T04:12:44.182Z,101888.97
2022-11-29T04:15:26.204Z,101890.69
2022-11-29T04:18:12.446Z,101883.72
2022-11-29T04:21:10.776Z,101881.06
2022-11-29T04:24:04.988Z,101883.66
2022-11-29T04:26:58.822Z,101872.34
2022-11-29T04:29:31.416Z,101869.72
2022-11-29T04:32:22.735Z,101874.94
2022-11-29T04:35:26.774Z,101868.88
2022-11-29T04:38:15.422Z,101862.72
2022-11-29T04:40:51.051Z,101863.59
2022-11-29T04:43:48.980Z,101865.28
2022-11-29T04:46:40.614Z,101868.69
2022-11-29T04:49:25.110Z,101873.03
2022-11-29T04:52:25.368Z,101873.84
2022-11-29T04:55:27.644Z,101873.81
2022-11-29T04:58:34.456Z,101874.66
2022-11-29T05:01:13.555Z,101876.38
2022-11-29T05:04:10.731Z,101871.16
2022-11-29T05:07:06.506Z,101866.81
2022-11-29T05:09:59.655Z,101857.19
2022-11-29T05:12:29.383Z,101858.06
2022-11-29T05:15:26.880Z,101859.78
2022-11-29T05:18:07.031Z,101865.84
2022-11-29T05:20:48.673Z,101868.47
2022-11-29T05:23:19.139Z,101875.34
2022-11-29T05:26:22.868Z,101875.31
2022-11-29T05:29:05.343Z,101871.84
2022-11-29T05:31:51.902Z,101884.88
2022-11-29T05:34:48.825Z,101878.84
2022-11-29T05:38:05.005Z,101887.50
2022-11-29T05:40:43.859Z,101890.16
2022-11-29T05:43:48.927Z,101895.34
2022-11-29T05:46:28.281Z,101899.69
2022-11-29T05:49:27.024Z,101904.00
2022-11-29T05:52:02.817Z,101895.28
2022-11-29T05:54:49.230Z,101895.28
2022-11-29T05:57:47.597Z,101901.34
2022-11-29T06:00:17.455Z,101903.94
2022-11-29T06:03:12.699Z,101902.16
2022-11-29T06:05:53.146Z,101907.41
2022-11-29T06:08:25.749Z,101906.53
2022-11-29T06:11:01.576Z,101920.47
2022-11-29T06:14:20.175Z,101917.97
2022-11-29T06:16:57.212Z,101912.75
2022-11-29T06:19:46.826Z,101924.09
2022-11-29T06:22:32.040Z,101919.84
2022-11-29T06:25:36.205Z,101934.66
2022-11-29T06:28:12.041Z,101937.25
2022-11-29T06:30:41.716Z,101928.59
2022-11-29T06:33:28.224Z,101925.94
2022-11-29T06:36:21.292Z,101928.53
2022-11-29T06:38:48.260Z,101932.03
2022-11-29T06:41:20.243Z,101926.84
2022-11-29T06:43:47.694Z,101932.03
2022-11-29T06:46:20.922Z,101932.03
2022-11-29T06:49:02.681Z,101928.56
2022-11-29T06:51:36.328Z,101924.25
2022-11-29T06:54:08.891Z,101928.56
2022-11-29T06:56:43.187Z,101927.72
2022-11-29T06:59:39.047Z,101930.31
2022-11-29T07:02:21.532Z,101932.88
2022-11-29T07:05:06.661Z,101945.06
2022-11-29T07:07:35.230Z,101939.84
2022-11-29T07:10:08.251Z,101945.91
2022-11-29T07:12:37.774Z,101933.97
2022-11-29T07:15:05.221Z,101949.38
2022-11-29T07:17:42.636Z,101915.78
2022-11-29T07:20:32.940Z,101945.81
2022-11-29T07:23:21.104Z,101957.13
2022-11-29T07:26:15.542Z,101962.31
2022-11-29T07:28:57.277Z,101955.38
2022-11-29T07:31:48.244Z,101943.22
2022-11-29T07:34:36.386Z,101938.81
2022-11-29T07:37:09.096Z,101953.50
2022-11-29T07:40:06.591Z,101947.47
2022-11-29T07:43:03.605Z,101935.25
2022-11-29T07:45:32.952Z,101943.03
2022-11-29T07:48:00.147Z,101949.91
2022-11-29T07:50:28.045Z,101943.00
2022-11-29T07:52:55.955Z,101941.25
2022-11-29T07:55:25.040Z,101953.41
2022-11-29T07:57:52.228Z,101957.72
2022-11-29T08:00:19.772Z,101962.06
2022-11-29T08:02:47.396Z,101962.88
2022-11-29T08:05:14.182Z,101962.88
2022-11-29T08:07:41.616Z,101968.91
2022-11-29T08:10:11.841Z,101963.69
2022-11-29T08:12:43.948Z,101974.13
2022-11-29T08:15:10.808Z,101979.28
2022-11-29T08:17:39.088Z,101984.47
2022-11-29T08:20:07.290Z,101987.09
2022-11-29T08:22:34.184Z,101987.09
2022-11-29T08:25:01.527Z,101988.03
2022-11-29T08:27:28.594Z,101992.28
2022-11-29T08:29:55.328Z,101981.00
2022-11-29T08:32:22.110Z,101978.38
2022-11-29T08:34:48.853Z,101977.47
2022-11-29T08:37:15.681Z,101982.69
2022-11-29T08:39:42.846Z,101992.22
2022-11-29T08:42:09.847Z,101989.59
2022-11-29T08:44:36.772Z,101986.06
2022-11-29T08:47:22.335Z,101982.56
2022-11-29T08:50:04.301Z,101979.09
2022-11-29T08:52:54.916Z,101979.91
2022-11-29T08:55:23.994Z,101978.97
2022-11-29T08:57:52.160Z,101968.50
2022-11-29T09:00:21.327Z,101973.69
2022-11-29T09:02:49.013Z,101974.47
2022-11-29T09:05:15.956Z,101976.16
2022-11-29T09:07:43.484Z,101967.41
2022-11-29T09:10:11.502Z,101953.38
2022-11-29T09:12:41.416Z,101956.84
2022-11-29T09:15:10.343Z,101951.59
2022-11-29T09:17:37.117Z,101950.63
2022-11-29T09:20:05.507Z,101956.66
2022-11-29T09:22:32.561Z,101958.34
2022-11-29T09:24:59.293Z,101954.75
2022-11-29T09:27:25.988Z,101965.06
2022-11-29T09:29:52.726Z,101956.31
2022-11-29T09:32:19.729Z,101957.13
2022-11-29T09:34:46.774Z,101950.06
2022-11-29T09:37:13.717Z,101965.66
2022-11-29T09:39:41.761Z,101961.22
2022-11-29T09:42:27.400Z,101949.09
2022-11-29T09:44:59.460Z,101945.44
2022-11-29T09:47:35.545Z,101941.91
2022-11-29T09:50:14.307Z,101940.00
2022-11-29T09:53:17.616Z,101946.91
2022-11-29T09:56:12.480Z,101945.19
2022-11-29T09:58:57.096Z,101931.06
2022-11-29T10:01:28.578Z,101927.66
2022-11-29T10:04:01.065Z,101940.38
2022-11-29T10:06:41.791Z,101939.56
2022-11-29T10:09:33.913Z,101935.97
2022-11-29T10:12:23.886Z,101942.81
2022-11-29T10:15:25.950Z,101935.66
2022-11-29T10:18:16.825Z,101935.72
2022-11-29T10:20:49.283Z,101929.44
2022-11-29T10:23:23.387Z,101929.22
2022-11-29T10:25:53.099Z,101942.94
2022-11-29T10:28:22.574Z,101942.03
2022-11-29T10:30:53.433Z,101938.47
2022-11-29T10:33:25.634Z,101940.19
2022-11-29T10:35:57.238Z,101942.75
2022-11-29T10:38:32.188Z,101938.25
2022-11-29T10:41:10.697Z,101939.13
2022-11-29T10:43:38.527Z,101920.91
2022-11-29T10:46:10.799Z,101933.59
2022-11-29T10:48:37.759Z,101917.13
2022-11-29T10:51:20.651Z,101929.09
2022-11-29T10:53:48.615Z,101929.72
2022-11-29T10:56:35.681Z,101930.53
2022-11-29T10:59:09.486Z,101933.75
2022-11-29T11:01:41.185Z,101916.38
2022-11-29T11:04:14.581Z,101923.81
2022-11-29T11:06:46.109Z,101914.94
2022-11-29T11:09:40.441Z,101905.22
2022-11-29T11:12:19.395Z,101906.91
2022-11-29T11:14:51.548Z,101908.34
2022-11-29T11:17:26.693Z,101905.97
2022-11-29T11:20:19.591Z,101903.09
2022-11-29T11:23:01.134Z,101899.59
2022-11-29T11:25:35.472Z,101891.97
2022-11-29T11:28:36.863Z,101886.63
2022-11-29T11:31:08.465Z,101883.13
2022-11-29T11:33:38.786Z,101875.28
2022-11-29T11:36:20.739Z,101886.34
2022-11-29T11:38:55.220Z,101876.66
2022-11-29T11:41:47.913Z,101875.75
2022-11-29T11:44:52.349Z,101868.13
2022-11-29T11:47:27.268Z,101860.81
2022-11-29T11:49:56.119Z,101857.03
2022-11-29T11:52:26.100Z,101853.44
2022-11-29T11:54:59.448Z,101833.41
2022-11-29T11:57:27.508Z,101831.38
2022-11-29T12:00:00.744Z,101830.59
2022-11-29T12:02:39.011Z,101820.38
2022-11-29T12:05:13.637Z,101837.25
2022-11-29T12:08:11.068Z,101833.91
2022-11-29T12:10:40.549Z,101822.13
2022-11-29T12:13:17.672Z,101817.97
2022-11-29T12:15:47.445Z,101812.75
2022-11-29T12:18:31.206Z,101813.53
2022-11-29T12:21:10.202Z,101819.16
2022-11-29T12:24:22.712Z,101818.47
2022-11-29T12:26:58.568Z,101822.56
2022-11-29T12:29:29.882Z,101817.06
2022-11-29T12:32:05.413Z,101813.31
2022-11-29T12:34:55.290Z,101810.94
2022-11-29T12:37:27.121Z,101813.00
2022-11-29T12:40:03.466Z,101817.31
2022-11-29T12:42:51.831Z,101810.50
2022-11-29T12:45:56.121Z,101800.38
2022-11-29T12:48:34.848Z,101801.75
2022-11-29T12:51:26.599Z,101796.63
2022-11-29T12:54:14.326Z,101787.66
2022-11-29T12:57:19.950Z,101792.91
2022-11-29T13:00:30.751Z,101791.44
2022-11-29T13:03:21.461Z,101792.28
2022-11-29T13:06:39.365Z,101787.44
2022-11-29T13:09:18.702Z,101783.94
2022-11-29T13:12:02.153Z,101777.59
2022-11-29T13:14:50.193Z,101768.28
2022-11-29T13:17:49.023Z,101771.69
2022-11-29T13:20:21.684Z,101767.97
2022-11-29T13:22:57.797Z,101771.53
2022-11-29T13:25:41.966Z,101762.38
2022-11-29T13:28:18.008Z,101765.66
2022-11-29T13:30:45.307Z,101760.31
2022-11-29T13:33:25.141Z,101762.25
2022-11-29T13:36:04.135Z,101749.34
2022-11-29T13:38:40.036Z,101748.19
2022-11-29T13:41:32.335Z,101749.34
2022-11-29T13:44:20.498Z,101753.53
2022-11-29T13:47:07.479Z,101741.44
2022-11-29T13:49:58.818Z,101743.25
2022-11-29T13:52:37.015Z,101739.50
2022-11-29T13:55:10.457Z,101740.38
2022-11-29T13:58:17.758Z,101737.19
2022-11-29T14:00:45.109Z,101723.00
2022-11-29T14:03:20.779Z,101717.78
2022-11-29T14:06:10.069Z,101719.56
2022-11-29T14:09:17.897Z,101720.50
2022-11-29T14:11:52.745Z,101720.28
2022-11-29T14:14:25.435Z,101713.13
2022-11-29T14:17:02.947Z,101715.94
2022-11-29T14:19:34.083Z,101708.78
2022-11-29T14:22:06.738Z,101712.63
2022-11-29T14:24:35.341Z,101707.88
2022-11-29T14:27:12.667Z,101700.25
2022-11-29T14:29:48.670Z,101693.38
2022-11-29T14:32:58.921Z,101690.56
2022-11-29T14:35:56.094Z,101695.84
2022-11-29T14:38:29.231Z,101685.00
2022-11-29T14:41:16.860Z,101682.94
2022-11-29T14:43:44.154Z,101686.78
2022-11-29T14:46:16.910Z,101694.75
2022-11-29T14:48:57.250Z,101686.16
2022-11-29T14:51:26.800Z,101682.69
2022-11-29T14:54:13.432Z,101689.66
2022-11-29T14:56:45.192Z,101685.31
2022-11-29T14:59:46.246Z,101683.91
2022-11-29T15:02:25.122Z,101684.53
2022-11-29T15:04:55.376Z,101683.53
2022-11-29T15:07:29.672Z,101686.38
2022-11-29T15:10:01.454Z,101685.53
2022-11-29T15:12:34.299Z,101677.69
2022-11-29T15:15:27.021Z,101673.50
2022-11-29T15:18:25.024Z,101677.94
2022-11-29T15:21:10.789Z,101672.81
2022-11-29T15:23:42.683Z,101671.72
2022-11-29T15:26:21.177Z,101676.34
2022-11-29T15:28:47.984Z,101675.28
2022-11-29T15:31:19.169Z,101678.91
2022-11-29T15:33:48.972Z,101677.31
2022-11-29T15:36:24.392Z,101675.66
2022-11-29T15:38:53.051Z,101673.13
2022-11-29T15:41:31.593Z,101677.53
2022-11-29T15:44:20.146Z,101672.44
2022-11-29T15:46:46.893Z,101673.34
2022-11-29T15:49:25.912Z,101674.53
2022-11-29T15:52:00.103Z,101682.50
2022-11-29T15:54:39.321Z,101685.06
2022-11-29T15:57:11.383Z,101678.34
2022-11-29T15:59:48.486Z,101660.19
2022-11-29T16:02:18.841Z,101669.72
2022-11-29T16:04:49.297Z,101676.94
2022-11-29T16:07:18.631Z,101673.34
2022-11-29T16:09:51.831Z,101663.91
2022-11-29T16:12:19.076Z,101656.22
2022-11-29T16:14:57.217Z,101653.94
2022-11-29T16:17:32.828Z,101656.56
2022-11-29T16:20:24.961Z,101658.44
2022-11-29T16:23:12.759Z,101655.97
2022-11-29T16:26:14.952Z,101653.53
2022-11-29T16:28:45.194Z,101650.66
2022-11-29T16:31:23.572Z,101647.34
2022-11-29T16:33:52.642Z,101656.66
2022-11-29T16:36:24.891Z,101657.75
2022-11-29T16:38:54.815Z,101656.72
2022-11-29T16:41:32.524Z,101664.91
2022-11-29T16:44:00.349Z,101663.91
2022-11-29T16:46:39.534Z,101668.53
2022-11-29T16:49:33.672Z,101661.88
2022-11-29T16:52:01.503Z,101659.31
2022-11-29T16:54:34.501Z,101657.75
2022-11-29T16:57:06.550Z,101653.59
2022-11-29T16:59:35.353Z,101674.50
2022-11-29T17:02:02.287Z,101654.81
2022-11-29T17:04:29.162Z,101661.66
2022-11-29T17:06:56.987Z,101653.94
2022-11-29T17:09:34.314Z,101653.28
2022-11-29T17:12:02.693Z,101648.94
2022-11-29T17:14:30.372Z,101646.28
2022-11-29T17:16:57.572Z,101649.03
2022-11-29T17:19:24.813Z,101644.59
2022-11-29T17:21:52.870Z,101633.28
2022-11-29T17:24:21.144Z,101632.38
2022-11-29T17:26:47.994Z,101636.75
2022-11-29T17:29:16.298Z,101638.34
2022-11-29T17:31:44.665Z,101642.78
2022-11-29T17:34:12.094Z,101643.66
2022-11-29T17:36:39.090Z,101642.84
2022-11-29T17:39:06.118Z,101653.22
2022-11-29T17:41:33.820Z,101628.00
2022-11-29T17:44:01.287Z,101635.00
2022-11-29T17:46:33.073Z,101629.91
2022-11-29T17:49:02.048Z,101628.06
2022-11-29T17:51:51.169Z,101635.84
2022-11-29T17:54:16.137Z,101626.19
2022-11-29T17:56:42.868Z,101642.72
2022-11-29T17:59:09.644Z,101647.09
2022-11-29T18:01:36.980Z,101646.28
2022-11-29T18:04:06.020Z,101636.75
2022-11-29T18:06:38.004Z,101636.75
2022-11-29T18:09:06.306Z,101642.00
2022-11-29T18:11:46.795Z,101617.13
2022-11-29T18:14:17.856Z,101632.44
2022-11-29T18:16:47.734Z,101632.28
2022-11-29T18:19:17.406Z,101628.75
2022-11-29T18:21:44.728Z,101634.84
2022-11-29T18:24:11.763Z,101630.31
2022-11-29T18:26:39.075Z,101629.41
2022-11-29T18:29:07.110Z,101632.81
2022-11-29T18:31:36.851Z,101626.59
2022-11-29T18:34:13.077Z,101620.44
2022-11-29T18:36:45.624Z,101624.75
2022-11-29T18:39:15.733Z,101618.66
2022-11-29T18:41:48.042Z,101623.78
2022-11-29T18:44:17.591Z,101613.25
2022-11-29T18:46:45.297Z,101621.94
2022-11-29T18:49:15.052Z,101611.25
2022-11-29T18:51:46.223Z,101620.78
2022-11-29T18:54:13.918Z,101620.78
2022-11-29T18:56:41.474Z,101617.09
2022-11-29T18:59:14.920Z,101627.47
2022-11-29T19:01:43.131Z,101618.63
2022-11-29T19:04:12.418Z,101624.84
2022-11-29T19:06:40.326Z,101617.00
2022-11-29T19:09:11.315Z,101621.41
2022-11-29T19:11:38.639Z,101627.63
2022-11-29T19:14:11.574Z,101620.56
2022-11-29T19:16:41.379Z,101619.72
2022-11-29T19:19:08.263Z,101620.66
2022-11-29T19:21:35.319Z,101617.19
2022-11-29T19:24:05.231Z,101612.81
2022-11-29T19:26:33.644Z,101624.22
2022-11-29T19:29:01.838Z,101620.91
2022-11-29T19:31:29.351Z,101630.47
2022-11-29T19:33:57.138Z,101627.78
2022-11-29T19:36:30.636Z,101636.59
2022-11-29T19:39:00.736Z,101633.00
2022-11-29T19:41:34.100Z,101629.56
2022-11-29T19:44:03.703Z,101629.41
2022-11-29T19:46:33.072Z,101631.88
2022-11-29T19:49:00.860Z,101628.25
2022-11-29T19:51:29.629Z,101631.66
2022-11-29T19:53:59.860Z,101639.44
2022-11-29T19:56:27.989Z,101640.28
2022-11-29T19:58:55.478Z,101642.81
2022-11-29T20:01:25.441Z,101642.81
2022-11-29T20:03:53.078Z,101632.25
2022-11-29T20:06:20.252Z,101634.75
2022-11-29T20:08:47.987Z,101635.69
2022-11-29T20:11:22.645Z,101631.22
2022-11-29T20:13:55.525Z,101632.88
2022-11-29T20:16:23.335Z,101629.19
2022-11-29T20:18:51.722Z,101625.63
2022-11-29T20:21:31.412Z,101627.34
2022-11-29T20:24:01.167Z,101626.41
2022-11-29T20:26:28.903Z,101622.00
2022-11-29T20:28:55.779Z,101634.31
2022-11-29T20:31:23.752Z,101624.56
2022-11-29T20:33:53.102Z,101634.06
2022-11-29T20:36:38.546Z,101632.38
2022-11-29T20:39:11.001Z,101633.16
2022-11-29T20:42:16.200Z,101633.94
2022-11-29T20:44:54.133Z,101638.22
2022-11-29T20:47:23.467Z,101632.00
2022-11-29T20:49:51.127Z,101628.59
2022-11-29T20:52:51.518Z,101627.56
2022-11-29T20:55:18.605Z,101629.22
2022-11-29T20:57:45.399Z,101631.66
2022-11-29T21:00:13.333Z,101633.38
2022-11-29T21:02:40.218Z,101626.25
2022-11-29T21:05:07.908Z,101623.53
2022-11-29T21:07:34.749Z,101631.94
2022-11-29T21:10:02.040Z,101629.31
2022-11-29T21:12:30.211Z,101623.22
2022-11-29T21:14:57.804Z,101624.88
2022-11-29T21:17:31.736Z,101617.75
2022-11-29T21:20:00.412Z,101615.03
2022-11-29T21:22:36.192Z,101625.50
2022-11-29T21:25:22.401Z,101618.44
2022-11-29T21:27:49.502Z,101616.50
2022-11-29T21:30:24.552Z,101612.09
2022-11-29T21:32:52.282Z,101612.81
2022-11-29T21:35:19.565Z,101615.22
2022-11-29T21:37:46.525Z,101611.78
2022-11-29T21:40:14.275Z,101611.31
2022-11-29T21:42:41.374Z,101611.94
2022-11-29T21:45:14.804Z,101618.84
2022-11-29T21:47:43.083Z,101615.38
2022-11-29T21:50:10.489Z,101611.06
2022-11-29T21:52:37.247Z,101607.53
2022-11-29T21:55:04.637Z,101609.31
2022-11-29T21:57:31.368Z,101607.34
2022-11-29T21:59:58.077Z,101609.97
2022-11-29T22:02:24.937Z,101610.22
2022-11-29T22:04:51.732Z,101615.38
2022-11-29T22:07:18.599Z,101608.38
2022-11-29T22:09:45.381Z,101605.75
2022-11-29T22:12:32.511Z,101610.75
2022-11-29T22:14:59.083Z,101612.59
2022-11-29T22:17:25.832Z,101593.34
2022-11-29T22:19:52.581Z,101609.03
2022-11-29T22:22:19.428Z,101611.78
2022-11-29T22:24:46.440Z,101598.69
2022-11-29T22:27:13.405Z,101604.59
2022-11-29T22:29:40.143Z,101606.25
2022-11-29T22:32:06.930Z,101606.97
2022-11-29T22:34:33.760Z,101614.03
2022-11-29T22:37:00.599Z,101609.53
2022-11-29T22:39:27.380Z,101611.97
2022-11-29T22:41:55.331Z,101619.75
2022-11-29T22:44:26.008Z,101611.81
2022-11-29T22:46:53.543Z,101617.66
2022-11-29T22:49:20.478Z,101618.34
2022-11-29T22:51:47.467Z,101619.13
2022-11-29T22:54:18.077Z,101620.84
2022-11-29T22:56:46.359Z,101629.59
2022-11-29T22:59:13.878Z,101622.47
2022-11-29T23:01:42.061Z,101625.22
2022-11-29T23:04:10.471Z,101638.13
2022-11-29T23:06:45.274Z,101623.34
2022-11-29T23:09:22.295Z,101619.72
2022-11-29T23:11:55.947Z,101624.84
2022-11-29T23:14:23.928Z,101622.09
2022-11-29T23:16:51.140Z,101624.78
2022-11-29T23:19:18.515Z,101624.66
2022-11-29T23:21:46.482Z,101620.38
2022-11-29T23:24:15.198Z,101629.03
2022-11-29T23:26:45.232Z,101627.22
2022-11-29T23:29:14.763Z,101621.88
2022-11-29T23:31:42.421Z,101632.31
2022-11-29T23:34:10.014Z,101625.31
2022-11-29T23:36:36.915Z,101613.19
2022-11-29T23:39:05.111Z,101630.63
2022-11-29T23:41:32.155Z,101630.41
2022-11-29T23:43:59.869Z,101625.16
2022-11-29T23:46:26.891Z,101626.16
2022-11-29T23:48:53.833Z,101632.34
2022-11-29T23:51:20.900Z,101635.97
2022-11-29T23:53:52.083Z,101622.88
2022-11-29T23:56:19.545Z,101633.34
2022-11-29T23:58:46.839Z,101631.78
